sensor_id;sensor_type;location;lat;lon;timestamp;P1;durP1;ratioP1;P2;durP2;ratioP2
2674;SDS011;1347;42.122;24.746;2023-04-24T00:00:14;12.27;;;9.30;;
2674;SDS011;1347;42.122;24.746;2023-04-24T00:02:43;10.50;;;9.30;;
2674;SDS011;1347;42.122;24.746;2023-04-24T00:05:12;16.33;;;10.50;;
2674;SDS011;1347;42.122;24.746;2023-04-24T00:07:39;17.03;;;10.50;;
2674;SDS011;1347;42.122;24.746;2023-04-24T00:10:07;12.30;;;10.20;;
2674;SDS011;1347;42.122;24.746;2023-04-24T00:12:36;11.17;;;10.07;;
2674;SDS011;1347;42.122;24.746;2023-04-24T00:15:03;11.30;;;10.20;;
2674;SDS011;1347;42.122;24.746;2023-04-24T00:17:31;10.40;;;9.30;;
2674;SDS011;1347;42.122;24.746;2023-04-24T00:19:58;12.67;;;10.20;;
2674;SDS011;1347;42.122;24.746;2023-04-24T00:22:25;12.47;;;10.00;;
2674;SDS011;1347;42.122;24.746;2023-04-24T00:24:53;13.53;;;10.50;;
2674;SDS011;1347;42.122;24.746;2023-04-24T00:27:20;13.73;;;10.03;;
2674;SDS011;1347;42.122;24.746;2023-04-24T00:29:48;12.37;;;10.60;;
2674;SDS011;1347;42.122;24.746;2023-04-24T00:32:15;15.23;;;10.60;;
2674;SDS011;1347;42.122;24.746;2023-04-24T00:34:42;11.80;;;10.60;;
2674;SDS011;1347;42.122;24.746;2023-04-24T00:37:09;10.77;;;9.67;;
2674;SDS011;1347;42.122;24.746;2023-04-24T00:39:36;13.63;;;10.90;;
2674;SDS011;1347;42.122;24.746;2023-04-24T00:42:04;12.10;;;10.90;;
2674;SDS011;1347;42.122;24.746;2023-04-24T00:44:32;15.63;;;12.20;;
2674;SDS011;1347;42.122;24.746;2023-04-24T00:47:00;18.30;;;13.87;;
2674;SDS011;1347;42.122;24.746;2023-04-24T00:49:27;16.00;;;14.10;;
2674;SDS011;1347;42.122;24.746;2023-04-24T00:51:55;15.70;;;14.00;;
2674;SDS011;1347;42.122;24.746;2023-04-24T00:54:21;19.50;;;13.60;;
2674;SDS011;1347;42.122;24.746;2023-04-24T00:56:48;15.13;;;13.73;;
2674;SDS011;1347;42.122;24.746;2023-04-24T00:59:16;15.00;;;13.47;;
2674;SDS011;1347;42.122;24.746;2023-04-24T01:01:43;19.57;;;13.93;;
2674;SDS011;1347;42.122;24.746;2023-04-24T01:04:12;18.43;;;14.70;;
2674;SDS011;1347;42.122;24.746;2023-04-24T01:06:40;14.40;;;12.93;;
2674;SDS011;1347;42.122;24.746;2023-04-24T01:09:10;17.17;;;15.47;;
2674;SDS011;1347;42.122;24.746;2023-04-24T01:11:38;15.93;;;14.00;;
2674;SDS011;1347;42.122;24.746;2023-04-24T01:14:07;18.40;;;14.47;;
2674;SDS011;1347;42.122;24.746;2023-04-24T01:16:34;20.63;;;15.17;;
2674;SDS011;1347;42.122;24.746;2023-04-24T01:19:03;16.07;;;14.47;;
2674;SDS011;1347;42.122;24.746;2023-04-24T01:21:32;17.00;;;14.33;;
2674;SDS011;1347;42.122;24.746;2023-04-24T01:24:04;24.07;;;16.30;;
2674;SDS011;1347;42.122;24.746;2023-04-24T01:26:31;20.87;;;16.00;;
2674;SDS011;1347;42.122;24.746;2023-04-24T01:28:59;17.17;;;15.47;;
2674;SDS011;1347;42.122;24.746;2023-04-24T01:31:26;21.03;;;14.73;;
2674;SDS011;1347;42.122;24.746;2023-04-24T01:33:53;17.73;;;15.07;;
2674;SDS011;1347;42.122;24.746;2023-04-24T01:36:21;17.57;;;15.63;;
2674;SDS011;1347;42.122;24.746;2023-04-24T01:38:48;17.07;;;14.80;;
2674;SDS011;1347;42.122;24.746;2023-04-24T01:41:17;16.50;;;13.80;;
2674;SDS011;1347;42.122;24.746;2023-04-24T01:43:45;14.73;;;13.33;;
2674;SDS011;1347;42.122;24.746;2023-04-24T01:46:12;20.03;;;15.00;;
2674;SDS011;1347;42.122;24.746;2023-04-24T01:48:39;15.67;;;13.90;;
2674;SDS011;1347;42.122;24.746;2023-04-24T01:51:07;16.53;;;14.93;;
2674;SDS011;1347;42.122;24.746;2023-04-24T01:53:34;17.60;;;14.40;;
2674;SDS011;1347;42.122;24.746;2023-04-24T01:56:01;18.63;;;15.10;;
2674;SDS011;1347;42.122;24.746;2023-04-24T01:58:30;19.83;;;15.37;;
2674;SDS011;1347;42.122;24.746;2023-04-24T02:00:57;16.30;;;14.30;;
2674;SDS011;1347;42.122;24.746;2023-04-24T02:03:25;16.93;;;15.10;;
2674;SDS011;1347;42.122;24.746;2023-04-24T02:05:52;17.67;;;15.00;;
2674;SDS011;1347;42.122;24.746;2023-04-24T02:08:19;16.57;;;14.77;;
2674;SDS011;1347;42.122;24.746;2023-04-24T02:10:46;17.30;;;15.40;;
2674;SDS011;1347;42.122;24.746;2023-04-24T02:13:13;17.67;;;15.73;;
2674;SDS011;1347;42.122;24.746;2023-04-24T02:15:41;17.23;;;14.23;;
2674;SDS011;1347;42.122;24.746;2023-04-24T02:18:08;15.97;;;14.37;;
2674;SDS011;1347;42.122;24.746;2023-04-24T02:20:36;15.10;;;13.60;;
2674;SDS011;1347;42.122;24.746;2023-04-24T02:23:03;16.43;;;14.07;;
2674;SDS011;1347;42.122;24.746;2023-04-24T02:25:30;17.53;;;15.53;;
2674;SDS011;1347;42.122;24.746;2023-04-24T02:27:57;14.13;;;12.70;;
2674;SDS011;1347;42.122;24.746;2023-04-24T02:30:24;17.63;;;14.57;;
2674;SDS011;1347;42.122;24.746;2023-04-24T02:32:52;17.87;;;15.97;;
2674;SDS011;1347;42.122;24.746;2023-04-24T02:35:19;16.87;;;15.17;;
2674;SDS011;1347;42.122;24.746;2023-04-24T02:37:46;16.70;;;15.20;;
2674;SDS011;1347;42.122;24.746;2023-04-24T02:40:13;17.57;;;15.87;;
2674;SDS011;1347;42.122;24.746;2023-04-24T02:42:40;21.90;;;16.30;;
2674;SDS011;1347;42.122;24.746;2023-04-24T02:45:07;21.70;;;18.70;;
2674;SDS011;1347;42.122;24.746;2023-04-24T02:47:34;19.83;;;17.40;;
2674;SDS011;1347;42.122;24.746;2023-04-24T02:50:03;18.40;;;16.30;;
2674;SDS011;1347;42.122;24.746;2023-04-24T02:52:30;25.00;;;17.10;;
2674;SDS011;1347;42.122;24.746;2023-04-24T02:54:57;20.20;;;17.20;;
2674;SDS011;1347;42.122;24.746;2023-04-24T02:57:24;20.40;;;17.57;;
2674;SDS011;1347;42.122;24.746;2023-04-24T02:59:51;20.70;;;18.40;;
2674;SDS011;1347;42.122;24.746;2023-04-24T03:02:18;21.77;;;19.57;;
2674;SDS011;1347;42.122;24.746;2023-04-24T03:04:45;20.90;;;18.77;;
2674;SDS011;1347;42.122;24.746;2023-04-24T03:07:14;21.00;;;18.77;;
2674;SDS011;1347;42.122;24.746;2023-04-24T03:09:41;21.70;;;19.43;;
2674;SDS011;1347;42.122;24.746;2023-04-24T03:12:08;22.73;;;20.20;;
2674;SDS011;1347;42.122;24.746;2023-04-24T03:14:35;21.77;;;19.57;;
2674;SDS011;1347;42.122;24.746;2023-04-24T03:17:01;24.33;;;20.00;;
2674;SDS011;1347;42.122;24.746;2023-04-24T03:19:28;23.03;;;20.73;;
2674;SDS011;1347;42.122;24.746;2023-04-24T03:21:55;22.67;;;19.63;;
2674;SDS011;1347;42.122;24.746;2023-04-24T03:24:24;22.70;;;19.17;;
2674;SDS011;1347;42.122;24.746;2023-04-24T03:26:53;23.10;;;20.70;;
2674;SDS011;1347;42.122;24.746;2023-04-24T03:29:22;25.53;;;21.83;;
2674;SDS011;1347;42.122;24.746;2023-04-24T03:31:48;24.67;;;22.07;;
2674;SDS011;1347;42.122;24.746;2023-04-24T03:34:15;24.20;;;21.70;;
2674;SDS011;1347;42.122;24.746;2023-04-24T03:36:42;23.67;;;21.17;;
2674;SDS011;1347;42.122;24.746;2023-04-24T03:39:09;26.60;;;22.00;;
2674;SDS011;1347;42.122;24.746;2023-04-24T03:41:37;23.50;;;21.00;;
2674;SDS011;1347;42.122;24.746;2023-04-24T03:44:04;26.47;;;23.10;;
2674;SDS011;1347;42.122;24.746;2023-04-24T03:46:31;28.83;;;20.93;;
2674;SDS011;1347;42.122;24.746;2023-04-24T03:48:58;24.80;;;22.20;;
2674;SDS011;1347;42.122;24.746;2023-04-24T03:51:25;26.53;;;21.13;;
2674;SDS011;1347;42.122;24.746;2023-04-24T03:53:53;23.43;;;19.03;;
2674;SDS011;1347;42.122;24.746;2023-04-24T03:56:19;23.03;;;20.23;;
2674;SDS011;1347;42.122;24.746;2023-04-24T03:58:48;22.50;;;18.97;;
2674;SDS011;1347;42.122;24.746;2023-04-24T04:01:15;24.83;;;20.30;;
2674;SDS011;1347;42.122;24.746;2023-04-24T04:03:42;23.27;;;20.80;;
2674;SDS011;1347;42.122;24.746;2023-04-24T04:06:09;20.90;;;18.80;;
2674;SDS011;1347;42.122;24.746;2023-04-24T04:08:38;20.00;;;17.80;;
2674;SDS011;1347;42.122;24.746;2023-04-24T04:11:05;18.90;;;17.00;;
2674;SDS011;1347;42.122;24.746;2023-04-24T04:13:31;24.20;;;19.30;;
2674;SDS011;1347;42.122;24.746;2023-04-24T04:16:00;28.50;;;21.60;;
2674;SDS011;1347;42.122;24.746;2023-04-24T04:18:26;20.33;;;18.07;;
2674;SDS011;1347;42.122;24.746;2023-04-24T04:20:53;23.10;;;17.40;;
2674;SDS011;1347;42.122;24.746;2023-04-24T04:23:22;30.37;;;21.10;;
2674;SDS011;1347;42.122;24.746;2023-04-24T04:25:48;22.70;;;18.90;;
2674;SDS011;1347;42.122;24.746;2023-04-24T04:28:17;29.20;;;20.83;;
2674;SDS011;1347;42.122;24.746;2023-04-24T04:30:45;22.53;;;19.17;;
2674;SDS011;1347;42.122;24.746;2023-04-24T04:33:13;25.23;;;18.03;;
2674;SDS011;1347;42.122;24.746;2023-04-24T04:35:41;26.60;;;18.10;;
2674;SDS011;1347;42.122;24.746;2023-04-24T04:38:08;22.20;;;17.13;;
2674;SDS011;1347;42.122;24.746;2023-04-24T04:40:36;22.37;;;17.10;;
2674;SDS011;1347;42.122;24.746;2023-04-24T04:43:02;19.70;;;17.27;;
2674;SDS011;1347;42.122;24.746;2023-04-24T04:45:29;19.90;;;16.60;;
2674;SDS011;1347;42.122;24.746;2023-04-24T04:47:57;24.37;;;18.07;;
2674;SDS011;1347;42.122;24.746;2023-04-24T04:50:27;19.07;;;16.47;;
2674;SDS011;1347;42.122;24.746;2023-04-24T04:52:54;21.27;;;16.27;;
2674;SDS011;1347;42.122;24.746;2023-04-24T04:55:21;18.53;;;16.83;;
2674;SDS011;1347;42.122;24.746;2023-04-24T04:57:48;22.13;;;16.90;;
2674;SDS011;1347;42.122;24.746;2023-04-24T05:00:15;18.50;;;15.00;;
2674;SDS011;1347;42.122;24.746;2023-04-24T05:02:42;19.70;;;17.30;;
2674;SDS011;1347;42.122;24.746;2023-04-24T05:05:09;22.03;;;16.63;;
2674;SDS011;1347;42.122;24.746;2023-04-24T05:07:37;19.47;;;17.03;;
2674;SDS011;1347;42.122;24.746;2023-04-24T05:10:04;20.33;;;17.03;;
2674;SDS011;1347;42.122;24.746;2023-04-24T05:12:32;23.33;;;16.47;;
2674;SDS011;1347;42.122;24.746;2023-04-24T05:14:59;19.43;;;17.40;;
2674;SDS011;1347;42.122;24.746;2023-04-24T05:17:26;19.50;;;16.80;;
2674;SDS011;1347;42.122;24.746;2023-04-24T05:19:53;19.70;;;17.30;;
2674;SDS011;1347;42.122;24.746;2023-04-24T05:22:20;24.50;;;17.80;;
2674;SDS011;1347;42.122;24.746;2023-04-24T05:24:48;19.80;;;16.20;;
2674;SDS011;1347;42.122;24.746;2023-04-24T05:27:15;24.07;;;16.77;;
2674;SDS011;1347;42.122;24.746;2023-04-24T05:29:42;22.33;;;15.97;;
2674;SDS011;1347;42.122;24.746;2023-04-24T05:32:10;45.73;;;22.30;;
2674;SDS011;1347;42.122;24.746;2023-04-24T05:34:37;18.13;;;16.23;;
2674;SDS011;1347;42.122;24.746;2023-04-24T05:37:03;18.20;;;16.30;;
2674;SDS011;1347;42.122;24.746;2023-04-24T05:39:35;20.23;;;15.90;;
2674;SDS011;1347;42.122;24.746;2023-04-24T05:42:03;20.80;;;15.50;;
2674;SDS011;1347;42.122;24.746;2023-04-24T05:44:30;18.77;;;15.80;;
2674;SDS011;1347;42.122;24.746;2023-04-24T05:46:57;16.53;;;13.67;;
2674;SDS011;1347;42.122;24.746;2023-04-24T05:49:24;19.23;;;14.63;;
2674;SDS011;1347;42.122;24.746;2023-04-24T05:51:51;23.77;;;14.57;;
2674;SDS011;1347;42.122;24.746;2023-04-24T05:54:18;16.93;;;14.30;;
2674;SDS011;1347;42.122;24.746;2023-04-24T05:56:45;25.87;;;14.70;;
2674;SDS011;1347;42.122;24.746;2023-04-24T05:59:13;20.10;;;14.07;;
2674;SDS011;1347;42.122;24.746;2023-04-24T06:01:40;19.27;;;14.63;;
2674;SDS011;1347;42.122;24.746;2023-04-24T06:04:07;16.93;;;14.27;;
2674;SDS011;1347;42.122;24.746;2023-04-24T06:06:34;17.17;;;15.47;;
2674;SDS011;1347;42.122;24.746;2023-04-24T06:09:01;23.87;;;15.70;;
2674;SDS011;1347;42.122;24.746;2023-04-24T06:11:29;16.50;;;12.70;;
2674;SDS011;1347;42.122;24.746;2023-04-24T06:13:56;15.27;;;13.07;;
2674;SDS011;1347;42.122;24.746;2023-04-24T06:16:25;15.30;;;12.27;;
2674;SDS011;1347;42.122;24.746;2023-04-24T06:18:52;16.30;;;13.20;;
2674;SDS011;1347;42.122;24.746;2023-04-24T06:21:18;13.83;;;12.53;;
2674;SDS011;1347;42.122;24.746;2023-04-24T06:23:45;13.30;;;11.80;;
2674;SDS011;1347;42.122;24.746;2023-04-24T06:26:12;12.23;;;11.00;;
2674;SDS011;1347;42.122;24.746;2023-04-24T06:28:39;14.97;;;11.17;;
2674;SDS011;1347;42.122;24.746;2023-04-24T06:31:06;12.70;;;11.40;;
2674;SDS011;1347;42.122;24.746;2023-04-24T06:33:35;13.70;;;10.80;;
2674;SDS011;1347;42.122;24.746;2023-04-24T06:36:02;13.33;;;11.97;;
2674;SDS011;1347;42.122;24.746;2023-04-24T06:38:29;15.27;;;11.50;;
2674;SDS011;1347;42.122;24.746;2023-04-24T06:40:56;12.07;;;10.83;;
2674;SDS011;1347;42.122;24.746;2023-04-24T06:43:22;16.13;;;10.87;;
2674;SDS011;1347;42.122;24.746;2023-04-24T06:45:49;15.23;;;12.07;;
2674;SDS011;1347;42.122;24.746;2023-04-24T06:48:16;16.10;;;12.13;;
2674;SDS011;1347;42.122;24.746;2023-04-24T06:50:45;12.20;;;11.00;;
2674;SDS011;1347;42.122;24.746;2023-04-24T06:53:12;16.70;;;12.13;;
2674;SDS011;1347;42.122;24.746;2023-04-24T06:55:39;12.90;;;11.57;;
2674;SDS011;1347;42.122;24.746;2023-04-24T06:58:08;13.93;;;11.13;;
2674;SDS011;1347;42.122;24.746;2023-04-24T07:00:35;15.20;;;12.13;;
2674;SDS011;1347;42.122;24.746;2023-04-24T07:03:02;17.00;;;12.53;;
2674;SDS011;1347;42.122;24.746;2023-04-24T07:05:30;22.87;;;12.10;;
2674;SDS011;1347;42.122;24.746;2023-04-24T07:08:00;13.03;;;11.93;;
2674;SDS011;1347;42.122;24.746;2023-04-24T07:10:27;12.80;;;11.60;;
2674;SDS011;1347;42.122;24.746;2023-04-24T07:12:54;14.57;;;11.93;;
2674;SDS011;1347;42.122;24.746;2023-04-24T07:15:21;16.13;;;11.73;;
2674;SDS011;1347;42.122;24.746;2023-04-24T07:17:48;14.80;;;11.80;;
2674;SDS011;1347;42.122;24.746;2023-04-24T07:20:16;13.17;;;11.87;;
2674;SDS011;1347;42.122;24.746;2023-04-24T07:22:43;13.33;;;11.93;;
2674;SDS011;1347;42.122;24.746;2023-04-24T07:25:11;11.40;;;10.23;;
2674;SDS011;1347;42.122;24.746;2023-04-24T07:27:38;12.80;;;9.87;;
2674;SDS011;1347;42.122;24.746;2023-04-24T07:30:05;14.83;;;11.93;;
2674;SDS011;1347;42.122;24.746;2023-04-24T07:32:33;10.10;;;9.10;;
2674;SDS011;1347;42.122;24.746;2023-04-24T07:35:00;14.27;;;12.03;;
2674;SDS011;1347;42.122;24.746;2023-04-24T07:37:27;11.57;;;9.83;;
2674;SDS011;1347;42.122;24.746;2023-04-24T07:39:54;13.00;;;10.37;;
2674;SDS011;1347;42.122;24.746;2023-04-24T07:42:23;11.80;;;9.87;;
2674;SDS011;1347;42.122;24.746;2023-04-24T07:44:50;11.93;;;10.73;;
2674;SDS011;1347;42.122;24.746;2023-04-24T07:47:17;12.33;;;11.10;;
2674;SDS011;1347;42.122;24.746;2023-04-24T07:49:44;12.00;;;10.90;;
2674;SDS011;1347;42.122;24.746;2023-04-24T07:52:11;11.80;;;10.60;;
2674;SDS011;1347;42.122;24.746;2023-04-24T07:54:38;21.20;;;11.70;;
2674;SDS011;1347;42.122;24.746;2023-04-24T07:57:04;14.00;;;11.53;;
2674;SDS011;1347;42.122;24.746;2023-04-24T07:59:34;15.07;;;11.40;;
2674;SDS011;1347;42.122;24.746;2023-04-24T08:02:01;12.40;;;11.20;;
2674;SDS011;1347;42.122;24.746;2023-04-24T08:04:28;14.20;;;11.80;;
2674;SDS011;1347;42.122;24.746;2023-04-24T08:06:55;15.80;;;12.23;;
2674;SDS011;1347;42.122;24.746;2023-04-24T08:09:22;13.07;;;11.87;;
2674;SDS011;1347;42.122;24.746;2023-04-24T08:11:49;12.20;;;11.00;;
2674;SDS011;1347;42.122;24.746;2023-04-24T08:14:16;13.73;;;12.43;;
2674;SDS011;1347;42.122;24.746;2023-04-24T08:16:44;15.63;;;12.10;;
2674;SDS011;1347;42.122;24.746;2023-04-24T08:19:11;17.13;;;12.20;;
2674;SDS011;1347;42.122;24.746;2023-04-24T08:21:38;13.87;;;12.40;;
2674;SDS011;1347;42.122;24.746;2023-04-24T08:24:05;17.13;;;11.30;;
2674;SDS011;1347;42.122;24.746;2023-04-24T08:26:33;13.50;;;12.13;;
2674;SDS011;1347;42.122;24.746;2023-04-24T08:29:00;18.20;;;11.87;;
2674;SDS011;1347;42.122;24.746;2023-04-24T08:31:27;16.20;;;11.57;;
2674;SDS011;1347;42.122;24.746;2023-04-24T08:33:55;13.60;;;11.63;;
2674;SDS011;1347;42.122;24.746;2023-04-24T08:36:22;12.60;;;11.40;;
2674;SDS011;1347;42.122;24.746;2023-04-24T08:38:49;11.83;;;10.63;;
2674;SDS011;1347;42.122;24.746;2023-04-24T08:41:16;14.43;;;11.63;;
2674;SDS011;1347;42.122;24.746;2023-04-24T08:43:45;15.53;;;10.90;;
2674;SDS011;1347;42.122;24.746;2023-04-24T08:46:12;11.60;;;10.47;;
2674;SDS011;1347;42.122;24.746;2023-04-24T08:48:39;11.10;;;10.30;;
2674;SDS011;1347;42.122;24.746;2023-04-24T08:51:08;12.27;;;10.90;;
2674;SDS011;1347;42.122;24.746;2023-04-24T08:53:35;16.77;;;9.80;;
2674;SDS011;1347;42.122;24.746;2023-04-24T08:56:02;10.53;;;9.53;;
2674;SDS011;1347;42.122;24.746;2023-04-24T08:58:31;10.43;;;9.53;;
2674;SDS011;1347;42.122;24.746;2023-04-24T09:00:58;10.23;;;9.40;;
2674;SDS011;1347;42.122;24.746;2023-04-24T09:03:26;10.47;;;9.57;;
2674;SDS011;1347;42.122;24.746;2023-04-24T09:05:54;9.87;;;9.17;;
2674;SDS011;1347;42.122;24.746;2023-04-24T09:08:25;10.93;;;9.93;;
2674;SDS011;1347;42.122;24.746;2023-04-24T09:10:54;9.93;;;9.13;;
2674;SDS011;1347;42.122;24.746;2023-04-24T09:13:23;10.73;;;9.40;;
2674;SDS011;1347;42.122;24.746;2023-04-24T09:15:50;9.70;;;8.73;;
2674;SDS011;1347;42.122;24.746;2023-04-24T09:18:19;10.30;;;9.50;;
2674;SDS011;1347;42.122;24.746;2023-04-24T09:20:59;13.20;;;11.90;;
2674;SDS011;1347;42.122;24.746;2023-04-24T09:23:29;11.60;;;10.40;;
2674;SDS011;1347;42.122;24.746;2023-04-24T09:25:57;10.93;;;9.83;;
2674;SDS011;1347;42.122;24.746;2023-04-24T09:28:27;11.30;;;10.30;;
2674;SDS011;1347;42.122;24.746;2023-04-24T09:31:06;11.17;;;10.13;;
2674;SDS011;1347;42.122;24.746;2023-04-24T09:33:34;10.23;;;8.90;;
2674;SDS011;1347;42.122;24.746;2023-04-24T09:36:01;11.00;;;9.90;;
2674;SDS011;1347;42.122;24.746;2023-04-24T09:38:33;9.00;;;8.10;;
2674;SDS011;1347;42.122;24.746;2023-04-24T09:41:01;9.37;;;8.47;;
2674;SDS011;1347;42.122;24.746;2023-04-24T09:43:29;8.60;;;7.80;;
2674;SDS011;1347;42.122;24.746;2023-04-24T09:45:56;14.50;;;9.00;;
2674;SDS011;1347;42.122;24.746;2023-04-24T09:48:31;10.03;;;9.07;;
2674;SDS011;1347;42.122;24.746;2023-04-24T09:50:59;9.70;;;8.70;;
2674;SDS011;1347;42.122;24.746;2023-04-24T09:53:27;8.20;;;7.60;;
2674;SDS011;1347;42.122;24.746;2023-04-24T09:55:55;8.50;;;7.87;;
2674;SDS011;1347;42.122;24.746;2023-04-24T09:58:26;8.37;;;7.73;;
2674;SDS011;1347;42.122;24.746;2023-04-24T10:00:53;9.83;;;9.13;;
2674;SDS011;1347;42.122;24.746;2023-04-24T10:03:23;8.93;;;8.23;;
2674;SDS011;1347;42.122;24.746;2023-04-24T10:05:52;9.63;;;8.50;;
2674;SDS011;1347;42.122;24.746;2023-04-24T10:08:20;9.00;;;8.13;;
2674;SDS011;1347;42.122;24.746;2023-04-24T10:10:47;9.43;;;8.50;;
2674;SDS011;1347;42.122;24.746;2023-04-24T10:13:15;10.17;;;9.20;;
2674;SDS011;1347;42.122;24.746;2023-04-24T10:15:42;9.73;;;8.73;;
2674;SDS011;1347;42.122;24.746;2023-04-24T10:18:10;10.50;;;8.87;;
2674;SDS011;1347;42.122;24.746;2023-04-24T10:20:38;8.07;;;7.57;;
2674;SDS011;1347;42.122;24.746;2023-04-24T10:23:06;8.87;;;8.27;;
2674;SDS011;1347;42.122;24.746;2023-04-24T10:25:34;8.70;;;7.77;;
2674;SDS011;1347;42.122;24.746;2023-04-24T10:28:03;9.90;;;8.87;;
2674;SDS011;1347;42.122;24.746;2023-04-24T10:30:32;10.30;;;9.23;;
2674;SDS011;1347;42.122;24.746;2023-04-24T10:33:01;11.63;;;9.93;;
2674;SDS011;1347;42.122;24.746;2023-04-24T10:35:32;9.90;;;8.90;;
2674;SDS011;1347;42.122;24.746;2023-04-24T10:38:05;9.90;;;8.87;;
2674;SDS011;1347;42.122;24.746;2023-04-24T10:40:36;8.97;;;8.10;;
2674;SDS011;1347;42.122;24.746;2023-04-24T10:43:03;9.90;;;9.10;;
2674;SDS011;1347;42.122;24.746;2023-04-24T10:45:34;8.27;;;7.37;;
2674;SDS011;1347;42.122;24.746;2023-04-24T10:48:02;10.43;;;9.30;;
2674;SDS011;1347;42.122;24.746;2023-04-24T10:50:41;8.87;;;8.03;;
2674;SDS011;1347;42.122;24.746;2023-04-24T10:53:12;13.57;;;9.73;;
2674;SDS011;1347;42.122;24.746;2023-04-24T10:55:42;9.17;;;8.43;;
2674;SDS011;1347;42.122;24.746;2023-04-24T10:58:11;9.03;;;8.20;;
2674;SDS011;1347;42.122;24.746;2023-04-24T11:00:41;9.63;;;8.10;;
2674;SDS011;1347;42.122;24.746;2023-04-24T11:03:22;9.90;;;9.00;;
2674;SDS011;1347;42.122;24.746;2023-04-24T11:05:52;11.60;;;8.30;;
2674;SDS011;1347;42.122;24.746;2023-04-24T11:08:22;9.93;;;8.93;;
2674;SDS011;1347;42.122;24.746;2023-04-24T11:10:56;9.23;;;8.40;;
2674;SDS011;1347;42.122;24.746;2023-04-24T11:13:24;9.17;;;8.43;;
2674;SDS011;1347;42.122;24.746;2023-04-24T11:18:49;9.93;;;8.40;;
2674;SDS011;1347;42.122;24.746;2023-04-24T11:21:19;11.10;;;9.07;;
2674;SDS011;1347;42.122;24.746;2023-04-24T11:23:46;16.97;;;8.73;;
2674;SDS011;1347;42.122;24.746;2023-04-24T11:26:17;9.67;;;8.70;;
2674;SDS011;1347;42.122;24.746;2023-04-24T11:28:45;11.33;;;8.57;;
2674;SDS011;1347;42.122;24.746;2023-04-24T11:34:07;9.90;;;9.00;;
2674;SDS011;1347;42.122;24.746;2023-04-24T11:36:35;12.57;;;9.13;;
2674;SDS011;1347;42.122;24.746;2023-04-24T11:39:02;16.27;;;9.20;;
2674;SDS011;1347;42.122;24.746;2023-04-24T11:41:30;9.20;;;8.30;;
2674;SDS011;1347;42.122;24.746;2023-04-24T11:43:57;9.27;;;8.37;;
2674;SDS011;1347;42.122;24.746;2023-04-24T11:46:27;10.57;;;7.90;;
2674;SDS011;1347;42.122;24.746;2023-04-24T11:48:56;14.37;;;8.20;;
2674;SDS011;1347;42.122;24.746;2023-04-24T11:51:23;11.53;;;7.90;;
2674;SDS011;1347;42.122;24.746;2023-04-24T11:53:51;10.10;;;8.80;;
2674;SDS011;1347;42.122;24.746;2023-04-24T11:56:19;8.67;;;7.53;;
2674;SDS011;1347;42.122;24.746;2023-04-24T11:58:47;11.00;;;7.77;;
2674;SDS011;1347;42.122;24.746;2023-04-24T12:01:14;14.17;;;8.13;;
2674;SDS011;1347;42.122;24.746;2023-04-24T12:03:41;12.23;;;8.50;;
2674;SDS011;1347;42.122;24.746;2023-04-24T12:06:13;9.03;;;7.80;;
2674;SDS011;1347;42.122;24.746;2023-04-24T12:08:40;7.87;;;7.30;;
2674;SDS011;1347;42.122;24.746;2023-04-24T12:11:07;11.10;;;8.07;;
2674;SDS011;1347;42.122;24.746;2023-04-24T12:13:34;8.53;;;7.80;;
2674;SDS011;1347;42.122;24.746;2023-04-24T12:16:03;8.17;;;7.47;;
2674;SDS011;1347;42.122;24.746;2023-04-24T12:18:30;10.87;;;7.73;;
2674;SDS011;1347;42.122;24.746;2023-04-24T12:23:44;8.10;;;7.50;;
2674;SDS011;1347;42.122;24.746;2023-04-24T12:26:11;7.90;;;7.10;;
2674;SDS011;1347;42.122;24.746;2023-04-24T12:28:38;8.03;;;6.67;;
2674;SDS011;1347;42.122;24.746;2023-04-24T12:31:06;11.93;;;10.73;;
2674;SDS011;1347;42.122;24.746;2023-04-24T12:33:34;7.37;;;6.67;;
2674;SDS011;1347;42.122;24.746;2023-04-24T12:36:02;8.27;;;7.50;;
2674;SDS011;1347;42.122;24.746;2023-04-24T12:38:31;8.10;;;7.30;;
2674;SDS011;1347;42.122;24.746;2023-04-24T12:41:05;7.37;;;6.80;;
2674;SDS011;1347;42.122;24.746;2023-04-24T12:43:33;7.13;;;6.63;;
2674;SDS011;1347;42.122;24.746;2023-04-24T12:46:01;6.93;;;6.33;;
2674;SDS011;1347;42.122;24.746;2023-04-24T12:48:28;7.57;;;6.87;;
2674;SDS011;1347;42.122;24.746;2023-04-24T12:50:56;10.57;;;6.47;;
2674;SDS011;1347;42.122;24.746;2023-04-24T12:53:26;7.70;;;6.30;;
2674;SDS011;1347;42.122;24.746;2023-04-24T12:55:56;7.37;;;6.67;;
2674;SDS011;1347;42.122;24.746;2023-04-24T12:58:23;8.80;;;6.07;;
2674;SDS011;1347;42.122;24.746;2023-04-24T13:00:50;7.93;;;7.00;;
2674;SDS011;1347;42.122;24.746;2023-04-24T13:03:17;6.70;;;6.17;;
2674;SDS011;1347;42.122;24.746;2023-04-24T13:05:44;10.40;;;6.53;;
2674;SDS011;1347;42.122;24.746;2023-04-24T13:08:11;7.50;;;6.90;;
2674;SDS011;1347;42.122;24.746;2023-04-24T13:10:39;7.13;;;6.40;;
2674;SDS011;1347;42.122;24.746;2023-04-24T13:13:08;7.10;;;6.50;;
2674;SDS011;1347;42.122;24.746;2023-04-24T13:15:35;6.97;;;6.27;;
2674;SDS011;1347;42.122;24.746;2023-04-24T13:18:02;6.80;;;6.20;;
2674;SDS011;1347;42.122;24.746;2023-04-24T13:20:29;7.80;;;7.00;;
2674;SDS011;1347;42.122;24.746;2023-04-24T13:22:56;7.10;;;6.47;;
2674;SDS011;1347;42.122;24.746;2023-04-24T13:25:23;7.33;;;6.80;;
2674;SDS011;1347;42.122;24.746;2023-04-24T13:27:50;7.40;;;6.80;;
2674;SDS011;1347;42.122;24.746;2023-04-24T13:30:18;8.07;;;6.63;;
2674;SDS011;1347;42.122;24.746;2023-04-24T13:32:45;7.23;;;6.50;;
2674;SDS011;1347;42.122;24.746;2023-04-24T13:35:12;6.17;;;5.53;;
2674;SDS011;1347;42.122;24.746;2023-04-24T13:37:39;6.80;;;6.30;;
2674;SDS011;1347;42.122;24.746;2023-04-24T13:40:06;7.33;;;6.10;;
2674;SDS011;1347;42.122;24.746;2023-04-24T13:42:34;7.50;;;6.80;;
2674;SDS011;1347;42.122;24.746;2023-04-24T13:45:01;7.40;;;6.80;;
2674;SDS011;1347;42.122;24.746;2023-04-24T13:47:31;10.90;;;9.10;;
2674;SDS011;1347;42.122;24.746;2023-04-24T13:49:58;7.80;;;7.03;;
2674;SDS011;1347;42.122;24.746;2023-04-24T13:52:25;7.17;;;6.53;;
2674;SDS011;1347;42.122;24.746;2023-04-24T13:54:52;18.93;;;8.67;;
2674;SDS011;1347;42.122;24.746;2023-04-24T13:57:19;6.60;;;6.00;;
2674;SDS011;1347;42.122;24.746;2023-04-24T13:59:46;9.30;;;8.20;;
2674;SDS011;1347;42.122;24.746;2023-04-24T14:02:13;18.53;;;11.00;;
2674;SDS011;1347;42.122;24.746;2023-04-24T14:04:41;10.70;;;6.83;;
2674;SDS011;1347;42.122;24.746;2023-04-24T14:07:08;8.50;;;7.20;;
2674;SDS011;1347;42.122;24.746;2023-04-24T14:09:35;7.50;;;6.80;;
2674;SDS011;1347;42.122;24.746;2023-04-24T14:12:02;7.63;;;7.03;;
2674;SDS011;1347;42.122;24.746;2023-04-24T14:14:29;7.97;;;7.17;;
2674;SDS011;1347;42.122;24.746;2023-04-24T14:16:56;7.90;;;6.93;;
2674;SDS011;1347;42.122;24.746;2023-04-24T14:19:23;8.53;;;6.50;;
2674;SDS011;1347;42.122;24.746;2023-04-24T14:21:52;8.57;;;6.33;;
2674;SDS011;1347;42.122;24.746;2023-04-24T14:24:20;10.10;;;7.17;;
2674;SDS011;1347;42.122;24.746;2023-04-24T14:26:47;6.97;;;6.27;;
2674;SDS011;1347;42.122;24.746;2023-04-24T14:29:14;8.50;;;7.67;;
2674;SDS011;1347;42.122;24.746;2023-04-24T14:31:41;9.87;;;8.50;;
2674;SDS011;1347;42.122;24.746;2023-04-24T14:34:08;7.50;;;6.83;;
2674;SDS011;1347;42.122;24.746;2023-04-24T14:36:35;7.57;;;6.87;;
2674;SDS011;1347;42.122;24.746;2023-04-24T14:39:04;7.13;;;6.40;;
2674;SDS011;1347;42.122;24.746;2023-04-24T14:41:31;6.97;;;6.47;;
2674;SDS011;1347;42.122;24.746;2023-04-24T14:44:00;7.83;;;7.13;;
2674;SDS011;1347;42.122;24.746;2023-04-24T14:46:27;8.07;;;7.27;;
2674;SDS011;1347;42.122;24.746;2023-04-24T14:48:55;12.33;;;6.50;;
2674;SDS011;1347;42.122;24.746;2023-04-24T14:51:22;8.87;;;7.00;;
2674;SDS011;1347;42.122;24.746;2023-04-24T14:53:50;7.50;;;6.80;;